Time;durP1;ratioP1;P1;durP2;ratioP2;P2;SDS_P1;SDS_P2;PMS_P1;PMS_P2;Temp;Humidity;BMP_temperature;BMP_pressure;BME280_temperature;BME280_humidity;BME280_pressure;Samples;Min_cycle;Max_cycle;Signal;HPM_P1;HPM_P2
2022/05/02 00:01:04;;;;;;;;;;;;;;;25.86;38.39;94188.66;5008672;28;9092;-56
2022/05/02 00:03:31;;;;;;;;;;;;;;;25.85;37.31;94183.66;4932280;28;9449;-56
2022/05/02 00:06:08;;;;;;;;;;;;;;;25.88;37.72;94179.88;4950997;28;9405;-56
2022/05/02 00:08:45;;;;;;;;;;;;;;;25.83;38.25;94175.91;4949447;28;9916;-56
2022/05/02 00:11:17;;;;;;;;;;;;;;;25.83;37.68;94172.41;4956315;28;9064;-56
2022/05/02 00:13:43;;;;;;;;;;;;;;;25.86;37.83;94180.38;4948629;28;7946;-57
2022/05/02 00:16:09;;;;;;;;;;;;;;;25.86;37.33;94174.16;4949923;28;8997;-57
2022/05/02 00:18:35;;;;;;;;;;;;;;;25.82;38.02;94174.41;4931461;28;8747;-57
2022/05/02 00:21:02;;;;;;;;;;;;;;;25.77;38.30;94166.97;4930178;28;9765;-56
2022/05/02 00:23:39;;;;;;;;;;;;;;;25.80;38.04;94168.69;4949978;28;9107;-56
2022/05/02 00:26:15;;;;;;;;;;;;;;;25.78;37.66;94165.69;4937515;28;9687;-56
2022/05/02 00:28:42;;;;;;;;;;;;;;;25.79;37.54;94158.94;4936320;28;7585;-57
2022/05/02 00:31:08;;;;;;;;;;;;;;;25.79;37.70;94164.44;4936066;28;9770;-56
2022/05/02 00:33:45;;;;;;;;;;;;;;;25.77;37.73;94161.47;4936598;28;7122;-56
2022/05/02 00:36:15;;;;;;;;;;;;;;;25.74;37.37;94159.75;4953757;28;7163;-56
2022/05/02 00:38:52;;;;;;;;;;;;;;;25.73;38.07;94158.22;5006593;28;7295;-56
2022/05/02 00:41:20;;;;;;;;;;;;;;;25.75;37.87;94152.22;5003526;28;7882;-57
2022/05/02 00:43:55;;;;;;;;;;;;;;;25.74;37.68;94156.22;5008054;28;7219;-56
2022/05/02 00:46:29;;;;;;;;;;;;;;;25.74;37.81;94150.72;4992093;28;8219;-56
2022/05/02 00:48:56;;;;;;;;;;;;;;;25.74;38.05;94153.47;4989460;28;9118;-57
2022/05/02 00:51:22;;;;;;;;;;;;;;;25.72;37.99;94156.75;4998707;28;7635;-57
2022/05/02 00:53:51;;;;;;;;;;;;;;;25.71;37.99;94146.97;4995110;28;9091;-57
2022/05/02 00:56:21;;;;;;;;;;;;;;;25.74;37.52;94145.22;4990830;28;7035;-57
2022/05/02 00:58:50;;;;;;;;;;;;;;;25.72;38.02;94153.25;4991012;28;9588;-57
2022/05/02 01:01:17;;;;;;;;;;;;;;;25.72;38.04;94148.50;4991210;28;7213;-57
2022/05/02 01:03:46;;;;;;;;;;;;;;;25.73;37.64;94143.72;4990750;28;8299;-57
2022/05/02 01:09:02;;;;;;;;;;;;;;;25.69;37.58;94144.00;4990938;28;7955;-57
2022/05/02 01:11:30;;;;;;;;;;;;;;;25.67;38.02;94149.28;4990513;28;7031;-57
2022/05/02 01:14:09;;;;;;;;;;;;;;;25.64;37.70;94142.06;4990046;28;9130;-58
2022/05/02 01:16:35;;;;;;;;;;;;;;;25.68;38.08;94139.78;4992941;28;9083;-58
2022/05/02 01:19:08;;;;;;;;;;;;;;;25.65;37.54;94132.53;4988234;28;8579;-57
2022/05/02 01:21:44;;;;;;;;;;;;;;;25.66;37.57;94136.78;5007181;28;9141;-57
2022/05/02 01:24:11;;;;;;;;;;;;;;;25.65;37.23;94143.56;5007670;28;8745;-57
2022/05/02 01:26:58;;;;;;;;;;;;;;;25.66;37.73;94136.78;4991699;28;7252;-57
2022/05/02 01:29:25;;;;;;;;;;;;;;;25.68;37.17;94142.53;5000550;28;8771;-57
2022/05/02 01:31:57;;;;;;;;;;;;;;;25.68;37.24;94137.03;4990109;28;8406;-57
2022/05/02 01:34:30;;;;;;;;;;;;;;;25.65;37.48;94126.28;4990526;28;7632;-57
2022/05/02 01:36:57;;;;;;;;;;;;;;;25.61;37.50;94129.31;5003759;28;7363;-57
2022/05/02 01:39:25;;;;;;;;;;;;;;;25.63;37.89;94135.06;4978427;28;9307;-57
2022/05/02 01:41:52;;;;;;;;;;;;;;;25.62;37.21;94130.06;4977527;28;7284;-57
2022/05/02 01:44:20;;;;;;;;;;;;;;;25.58;38.04;94126.88;4981917;28;9614;-57
2022/05/02 01:46:55;;;;;;;;;;;;;;;25.61;37.75;94129.31;5007361;28;9424;-57
2022/05/02 01:49:24;;;;;;;;;;;;;;;25.62;37.74;94125.28;4998320;28;9535;-57
2022/05/02 01:51:50;;;;;;;;;;;;;;;25.62;37.89;94124.56;4990090;28;7696;-57
2022/05/02 01:54:19;;;;;;;;;;;;;;;25.62;37.28;94127.31;4990487;28;7279;-57
2022/05/02 01:56:46;;;;;;;;;;;;;;;25.64;37.86;94117.28;5006755;28;7329;-57
2022/05/02 01:59:13;;;;;;;;;;;;;;;25.65;37.97;94129.03;4990409;28;9349;-57
2022/05/02 02:01:42;;;;;;;;;;;;;;;25.65;37.06;94120.75;4990072;28;9470;-56
2022/05/02 02:06:53;;;;;;;;;;;;;;;25.63;37.22;94118.53;4982341;28;7446;-56
2022/05/02 02:09:19;;;;;;;;;;;;;;;25.66;37.52;94122.28;4985785;28;9009;-56
2022/05/02 02:11:45;;;;;;;;;;;;;;;25.61;37.48;94123.81;4986892;28;9199;-56
2022/05/02 02:14:13;;;;;;;;;;;;;;;25.62;37.79;94122.53;4983828;28;7067;-56
2022/05/02 02:16:39;;;;;;;;;;;;;;;25.64;37.25;94119.28;4987601;28;9119;-56
2022/05/02 02:19:05;;;;;;;;;;;;;;;25.65;37.11;94121.50;4987443;28;7923;-56
2022/05/02 02:21:34;;;;;;;;;;;;;;;25.65;37.41;94121.50;4986128;28;8270;-56
2022/05/02 02:24:04;;;;;;;;;;;;;;;25.64;37.48;94120.03;4985747;28;9212;-56
2022/05/02 02:26:31;;;;;;;;;;;;;;;25.68;37.36;94126.00;4978548;28;8253;-56
2022/05/02 02:29:03;;;;;;;;;;;;;;;25.68;37.20;94125.25;4998039;28;7259;-57
2022/05/02 02:31:29;;;;;;;;;;;;;;;25.64;37.62;94117.28;4979672;28;9080;-57
2022/05/02 02:33:55;;;;;;;;;;;;;;;25.63;37.94;94117.78;4992842;28;7313;-57
2022/05/02 02:36:22;;;;;;;;;;;;;;;25.64;37.18;94114.53;4983706;28;8738;-57
2022/05/02 02:38:51;;;;;;;;;;;;;;;25.67;37.67;94110.72;4989980;28;7092;-57
2022/05/02 02:41:20;;;;;;;;;;;;;;;25.55;37.47;94101.09;5005291;28;8744;-57
2022/05/02 02:43:54;;;;;;;;;;;;;;;25.58;36.91;94111.06;5005344;28;7397;-57
2022/05/02 02:46:21;;;;;;;;;;;;;;;25.61;37.62;94110.03;4998495;28;9387;-57
2022/05/02 02:48:48;;;;;;;;;;;;;;;25.61;37.41;94110.03;5004683;28;7333;-57
2022/05/02 02:51:14;;;;;;;;;;;;;;;25.65;37.49;94107.75;4991542;28;7018;-57
2022/05/02 02:53:40;;;;;;;;;;;;;;;25.64;37.63;94109.03;4985865;28;7533;-57
2022/05/02 02:56:05;;;;;;;;;;;;;;;25.66;37.31;94097.47;4987421;28;9008;-57
2022/05/02 02:58:31;;;;;;;;;;;;;;;25.67;37.60;94102.47;4985539;28;7168;-57
2022/05/02 03:00:59;;;;;;;;;;;;;;;25.66;37.41;94097.47;4990398;28;7025;-57
2022/05/02 03:03:29;;;;;;;;;;;;;;;25.68;37.13;94090.19;4993378;28;9030;-57
2022/05/02 03:06:08;;;;;;;;;;;;;;;25.65;36.89;94088.47;4993308;28;9053;-57
2022/05/02 03:08:36;;;;;;;;;;;;;;;25.66;37.12;94089.97;4985271;28;7615;-57
2022/05/02 03:11:03;;;;;;;;;;;;;;;25.65;36.74;94082.97;4993740;28;9134;-57
2022/05/02 03:13:30;;;;;;;;;;;;;;;25.64;36.68;94083.47;4994824;28;9198;-57
2022/05/02 03:16:14;;;;;;;;;;;;;;;25.63;36.94;94079.97;5002289;28;9168;-57
2022/05/02 03:18:43;;;;;;;;;;;;;;;25.63;37.42;94079.97;5006250;28;7003;-57
2022/05/02 03:21:26;;;;;;;;;;;;;;;25.62;37.13;94075.00;4994440;28;9077;-57
2022/05/02 03:23:54;;;;;;;;;;;;;;;25.62;37.56;94078.47;4984526;28;7533;-57
2022/05/02 03:26:39;;;;;;;;;;;;;;;25.57;36.99;94062.03;4988415;28;9211;-57
2022/05/02 03:29:05;;;;;;;;;;;;;;;25.61;37.04;94068.72;4992089;28;7062;-57
2022/05/02 03:31:33;;;;;;;;;;;;;;;25.58;37.02;94061.50;4993163;28;7454;-56
2022/05/02 03:34:08;;;;;;;;;;;;;;;25.61;37.21;94073.50;4994702;28;7173;-57
2022/05/02 03:36:35;;;;;;;;;;;;;;;25.60;36.82;94072.00;4999336;28;8936;-57
2022/05/02 03:39:09;;;;;;;;;;;;;;;25.58;37.00;94061.50;4992150;28;9169;-57
2022/05/02 03:41:46;;;;;;;;;;;;;;;25.61;37.26;94070.72;5008577;28;8722;-57
2022/05/02 03:44:13;;;;;;;;;;;;;;;25.60;36.90;94061.72;4983576;28;9448;-57
2022/05/02 03:46:45;;;;;;;;;;;;;;;25.58;37.40;94058.75;4991845;28;7022;-56
2022/05/02 03:49:11;;;;;;;;;;;;;;;25.59;36.59;94070.50;4992229;28;9119;-57
2022/05/02 03:51:37;;;;;;;;;;;;;;;25.57;36.72;94054.50;4981153;28;9269;-57
2022/05/02 03:54:06;;;;;;;;;;;;;;;25.56;37.33;94055.75;5005617;28;7199;-56
2022/05/02 03:56:33;;;;;;;;;;;;;;;25.55;36.95;94059.78;4993620;28;9047;-57
2022/05/02 03:58:59;;;;;;;;;;;;;;;25.57;37.52;94053.75;4983259;28;7598;-57
2022/05/02 04:01:27;;;;;;;;;;;;;;;25.54;36.74;94060.28;4992505;28;7244;-57
2022/05/02 04:03:56;;;;;;;;;;;;;;;25.54;36.54;94060.28;4991282;28;9463;-57
2022/05/02 04:06:30;;;;;;;;;;;;;;;25.54;37.13;94057.53;4985059;28;6996;-57
2022/05/02 04:08:57;;;;;;;;;;;;;;;25.52;37.52;94057.31;5007970;28;7016;-57
2022/05/02 04:11:27;;;;;;;;;;;;;;;25.51;36.83;94056.59;5008509;28;9737;-57
2022/05/02 04:13:56;;;;;;;;;;;;;;;25.51;37.61;94053.09;5007236;28;7274;-57
2022/05/02 04:16:24;;;;;;;;;;;;;;;25.50;37.23;94055.09;5002190;28;7233;-56
2022/05/02 04:18:51;;;;;;;;;;;;;;;25.50;37.37;94052.34;5005169;28;7491;-57
2022/05/02 04:21:17;;;;;;;;;;;;;;;25.49;36.65;94055.63;4978970;28;9134;-57
2022/05/02 04:23:44;;;;;;;;;;;;;;;25.48;36.87;94051.34;4981119;28;9067;-56
2022/05/02 04:26:19;;;;;;;;;;;;;;;25.47;37.44;94056.13;4985274;28;8513;-56
2022/05/02 04:28:45;;;;;;;;;;;;;;;25.48;37.47;94057.63;4979318;28;9241;-56
2022/05/02 04:31:11;;;;;;;;;;;;;;;25.47;36.72;94058.88;4995335;28;9864;-56
2022/05/02 04:33:39;;;;;;;;;;;;;;;25.48;37.16;94057.63;4990018;28;9049;-56
2022/05/02 04:36:16;;;;;;;;;;;;;;;25.47;36.42;94058.88;4979388;28;8293;-56
2022/05/02 04:39:11;;;;;;;;;;;;;;;25.46;36.46;94054.63;4977609;28;9141;-56
2022/05/02 04:41:49;;;;;;;;;;;;;;;25.46;37.40;94059.41;4914189;29;7017;-57
2022/05/02 04:44:17;;;;;;;;;;;;;;;25.45;37.12;94053.13;4915788;29;9517;-57
2022/05/02 04:46:52;;;;;;;;;;;;;;;25.45;37.14;94058.66;4930257;29;7936;-57
2022/05/02 04:49:18;;;;;;;;;;;;;;;25.45;36.82;94061.41;4916467;29;9317;-57
2022/05/02 04:51:46;;;;;;;;;;;;;;;25.43;37.06;94063.91;4936138;28;8026;-57
2022/05/02 04:54:12;;;;;;;;;;;;;;;25.39;37.21;94066.19;4915603;28;9475;-57
2022/05/02 04:56:38;;;;;;;;;;;;;;;25.36;36.95;94069.97;4916462;29;9125;-58
2022/05/02 04:59:06;;;;;;;;;;;;;;;25.37;36.68;94063.22;4924369;29;9815;-58
2022/05/02 05:01:32;;;;;;;;;;;;;;;25.37;36.71;94068.72;4928466;28;7282;-57
2022/05/02 05:03:59;;;;;;;;;;;;;;;25.35;36.85;94068.50;4912571;29;8719;-58
2022/05/02 05:06:29;;;;;;;;;;;;;;;25.36;37.08;94067.97;4907829;29;9098;-58
2022/05/02 05:08:57;;;;;;;;;;;;;;;25.30;36.53;94061.03;4928610;29;8200;-58
2022/05/02 05:11:42;;;;;;;;;;;;;;;25.26;36.02;94064.09;4925362;29;7191;-58
2022/05/02 05:17:51;;;;;;;;;;;;;;;25.24;35.98;94071.34;4946566;28;7128;-58
2022/05/02 05:20:43;;;;;;;;;;;;;;;25.24;36.38;94072.13;5001409;28;7076;-58
2022/05/02 05:23:21;;;;;;;;;;;;;;;25.26;36.78;94066.09;5001414;28;7669;-57
2022/05/02 05:26:29;;;;;;;;;;;;;;;25.30;36.11;94063.78;4985189;28;7054;-57
2022/05/02 05:29:09;;;;;;;;;;;;;;;25.33;36.00;94066.28;4945988;28;9085;-56
2022/05/02 05:31:44;;;;;;;;;;;;;;;25.35;35.15;94065.75;4958876;28;7128;-57
2022/05/02 05:34:18;;;;;;;;;;;;;;;25.37;34.36;94072.22;4944503;28;9011;-57
2022/05/02 05:37:01;;;;;;;;;;;;;;;25.39;34.61;94072.44;4939015;28;7216;-57
2022/05/02 05:39:42;;;;;;;;;;;;;;;25.42;34.57;94067.94;4947238;28;7471;-57
2022/05/02 05:42:34;;;;;;;;;;;;;;;25.44;35.56;94070.94;4937583;28;7339;-57
2022/05/02 05:45:19;;;;;;;;;;;;;;;25.48;35.34;94059.63;4959171;28;7339;-57
2022/05/02 05:48:21;;;;;;;;;;;;;;;25.49;34.92;94059.09;4943583;28;8973;-58
2022/05/02 05:51:10;;;;;;;;;;;;;;;25.54;35.17;94071.31;4962818;28;9139;-56
2022/05/02 05:53:59;;;;;;;;;;;;;;;25.57;35.00;94071.03;4868317;29;7315;-57
2022/05/02 05:56:28;;;;;;;;;;;;;;;25.59;35.54;94068.50;4863067;29;7890;-57
2022/05/02 05:59:17;;;;;;;;;;;;;;;25.57;35.21;94062.78;4851654;29;9125;-57
2022/05/02 06:01:51;;;;;;;;;;;;;;;25.63;34.57;94068.22;4850455;29;9116;-57
2022/05/02 06:04:21;;;;;;;;;;;;;;;25.66;35.09;94065.19;4856001;29;9374;-57
2022/05/02 06:06:47;;;;;;;;;;;;;;;25.67;34.79;94063.91;4886221;29;7231;-56
2022/05/02 06:09:15;;;;;;;;;;;;;;;25.69;35.07;94064.13;4907017;29;6994;-57
2022/05/02 06:11:47;;;;;;;;;;;;;;;25.71;35.53;94069.13;4906507;29;9172;-57
2022/05/02 06:14:15;;;;;;;;;;;;;;;25.73;34.82;94064.56;4892496;29;7935;-56
2022/05/02 06:19:31;;;;;;;;;;;;;;;25.74;35.35;94073.59;4904742;29;6990;-57
2022/05/02 06:22:02;;;;;;;;;;;;;;;25.74;35.24;94068.81;4906170;29;9057;-57
2022/05/02 06:24:32;;;;;;;;;;;;;;;25.76;35.12;94071.06;4904209;29;7097;-57
2022/05/02 06:27:01;;;;;;;;;;;;;;;25.75;34.52;94067.56;4903696;29;9951;-57
2022/05/02 06:29:27;;;;;;;;;;;;;;;25.83;34.53;94073.22;4904840;29;7953;-57
2022/05/02 06:31:58;;;;;;;;;;;;;;;25.88;33.94;94067.63;4986801;28;7040;-56
2022/05/02 06:34:29;;;;;;;;;;;;;;;25.95;34.49;94075.31;5002875;28;9015;-56
2022/05/02 06:37:05;;;;;;;;;;;;;;;26.02;34.65;94071.22;4984277;28;7327;-57
2022/05/02 06:39:57;;;;;;;;;;;;;;;26.07;34.00;94073.91;4992590;28;7432;-56
2022/05/02 06:42:52;;;;;;;;;;;;;;;26.11;33.59;94068.88;5000885;28;9895;-57
2022/05/02 06:45:43;;;;;;;;;;;;;;;26.19;33.80;94079.31;4983527;28;7247;-57
2022/05/02 06:48:25;;;;;;;;;;;;;;;26.22;33.36;94067.22;5003542;28;7077;-56
2022/05/02 06:51:07;;;;;;;;;;;;;;;26.23;32.93;94069.44;4985503;28;9108;-56
2022/05/02 06:53:58;;;;;;;;;;;;;;;26.24;33.38;94070.97;4987678;28;7003;-57
2022/05/02 06:56:43;;;;;;;;;;;;;;;26.26;32.44;94073.94;4995736;28;9327;-57
2022/05/02 06:59:33;;;;;;;;;;;;;;;26.27;33.49;94067.16;4997510;28;7440;-58
2022/05/02 07:02:12;;;;;;;;;;;;;;;26.31;33.70;94075.88;4984742;28;9424;-57
2022/05/02 07:04:54;;;;;;;;;;;;;;;26.34;33.71;94069.28;5001327;28;8702;-57
2022/05/02 07:07:58;;;;;;;;;;;;;;;26.35;33.17;94070.06;4984984;28;9277;-56
2022/05/02 07:10:32;;;;;;;;;;;;;;;26.38;33.47;94069.00;4983900;28;7780;-58
2022/05/02 07:16:56;;;;;;;;;;;;;;;26.40;34.57;94067.22;4954680;28;9585;-57
2022/05/02 07:19:27;;;;;;;;;;;;;;;26.41;34.46;94076.22;4928271;28;9407;-58
2022/05/02 07:22:01;;;;;;;;;;;;;;;26.42;34.15;94063.94;4933091;28;9416;-58
2022/05/02 07:24:51;;;;;;;;;;;;;;;26.43;33.68;94073.69;4937722;28;9129;-58
2022/05/02 07:27:51;;;;;;;;;;;;;;;26.42;33.79;94063.94;4927261;28;9290;-58
2022/05/02 07:30:21;;;;;;;;;;;;;;;26.40;33.98;94067.22;4937248;28;7254;-58
2022/05/02 07:32:58;;;;;;;;;;;;;;;26.41;34.39;94067.94;4949191;28;7565;-58
2022/05/02 07:35:24;;;;;;;;;;;;;;;26.41;34.53;94068.69;4932573;28;9705;-57
2022/05/02 07:37:53;;;;;;;;;;;;;;;26.42;34.68;94069.44;4934674;28;8642;-58
2022/05/02 07:40:21;;;;;;;;;;;;;;;26.42;35.06;94069.44;4928887;28;9117;-57
2022/05/02 07:42:54;;;;;;;;;;;;;;;26.41;34.18;94067.94;4949078;28;6981;-57
2022/05/02 07:45:28;;;;;;;;;;;;;;;26.41;34.06;94070.72;4927176;28;7243;-58
2022/05/02 07:48:00;;;;;;;;;;;;;;;26.41;34.58;94074.22;4934949;28;7281;-58
2022/05/02 07:50:27;;;;;;;;;;;;;;;26.41;34.30;94073.47;4931770;28;6993;-59
2022/05/02 07:52:57;;;;;;;;;;;;;;;26.41;34.40;94067.94;4949479;28;7010;-57
2022/05/02 07:55:24;;;;;;;;;;;;;;;26.39;34.99;94064.97;4985365;28;9244;-58
2022/05/02 07:57:54;;;;;;;;;;;;;;;26.38;34.56;94063.50;4969428;28;9805;-57
2022/05/02 08:00:25;;;;;;;;;;;;;;;26.36;34.48;94058.50;4997946;28;7300;-57
2022/05/02 08:02:51;;;;;;;;;;;;;;;26.34;34.91;94069.28;5002969;28;8706;-57
2022/05/02 08:05:22;;;;;;;;;;;;;;;26.34;34.82;94063.06;4981095;28;7380;-57
2022/05/02 08:07:59;;;;;;;;;;;;;;;26.33;34.50;94075.34;4986030;28;8752;-57
2022/05/02 08:11:27;;;;;;;;;;;;;;;26.33;34.95;94067.81;4975741;28;8783;-58
2022/05/02 08:14:08;;;;;;;;;;;;;;;26.32;34.98;94068.34;4938670;28;7105;-58
2022/05/02 08:16:48;;;;;;;;;;;;;;;26.31;34.45;94064.09;4934541;28;9103;-56
2022/05/02 08:19:36;;;;;;;;;;;;;;;26.31;34.74;94064.09;4948102;28;8837;-56
2022/05/02 08:28:08;;;;;;;;;;;;;;;26.26;34.83;94065.66;4948694;28;9039;-57
2022/05/02 08:31:20;;;;;;;;;;;;;;;26.27;34.70;94060.91;4922726;28;7370;-58
2022/05/02 08:34:10;;;;;;;;;;;;;;;26.25;35.01;94060.69;4947257;28;9570;-58
2022/05/02 08:37:20;;;;;;;;;;;;;;;26.23;34.97;94068.72;4943073;28;7078;-58
2022/05/02 08:40:04;;;;;;;;;;;;;;;26.22;35.52;94059.72;4890956;29;9131;-57
2022/05/02 08:43:15;;;;;;;;;;;;;;;26.23;35.72;94068.72;4893545;29;7810;-56
2022/05/02 08:45:46;;;;;;;;;;;;;;;26.22;35.45;94070.72;4833753;29;9085;-57
2022/05/02 08:52:30;;;;;;;;;;;;;;;26.18;34.87;94056.50;4838037;29;9476;-57
2022/05/02 08:55:09;;;;;;;;;;;;;;;26.16;35.39;94059.03;4804342;29;8991;-57
2022/05/02 08:58:13;;;;;;;;;;;;;;;26.14;35.59;94056.78;4799184;29;7531;-58
2022/05/02 09:00:55;;;;;;;;;;;;;;;26.14;35.09;94056.06;4784784;29;7428;-57
2022/05/02 09:04:08;;;;;;;;;;;;;;;26.13;35.05;94054.56;4800945;29;9112;-58
2022/05/02 09:07:01;;;;;;;;;;;;;;;26.14;35.20;94053.31;4792289;29;7149;-58
2022/05/02 09:09:33;;;;;;;;;;;;;;;26.11;35.67;94055.09;4801262;29;8862;-57
2022/05/02 09:12:08;;;;;;;;;;;;;;;26.12;35.27;94051.06;4800552;29;9273;-58
2022/05/02 09:15:12;;;;;;;;;;;;;;;26.11;35.23;94048.84;4799259;29;7358;-57
2022/05/02 09:17:59;;;;;;;;;;;;;;;26.10;35.57;94050.09;4862600;29;7438;-56
2022/05/02 09:20:46;;;;;;;;;;;;;;;26.10;35.34;94044.56;4834360;29;9801;-57
2022/05/02 09:23:22;;;;;;;;;;;;;;;26.09;35.75;94046.59;4904039;29;7084;-56
2022/05/02 09:26:05;;;;;;;;;;;;;;;26.06;36.16;94044.84;4909034;29;7220;-57
2022/05/02 09:28:53;;;;;;;;;;;;;;;26.09;35.72;94048.63;4904907;29;9352;-57
2022/05/02 09:31:45;;;;;;;;;;;;;;;26.06;36.32;94044.84;4939148;28;9585;-57
2022/05/02 09:34:35;;;;;;;;;;;;;;;26.07;36.36;94043.59;4986159;28;7323;-57
2022/05/02 09:37:07;;;;;;;;;;;;;;;26.10;35.90;94039.06;4988808;28;9325;-57
2022/05/02 09:39:46;;;;;;;;;;;;;;;26.08;35.95;94036.84;4981643;28;9371;-57
2022/05/02 09:42:42;;;;;;;;;;;;;;;26.09;36.38;94035.59;4982923;28;7228;-58
2022/05/02 09:51:51;;;;;;;;;;;;;;;26.10;35.65;94037.06;4977505;28;7277;-58
2022/05/02 09:58:08;;;;;;;;;;;;;;;26.11;35.14;94029.53;4948857;28;9765;-58
2022/05/02 10:01:17;;;;;;;;;;;;;;;26.08;35.29;94041.56;4892925;29;7472;-57
2022/05/02 10:03:56;;;;;;;;;;;;;;;26.12;35.31;94033.81;4906311;29;9755;-57
2022/05/02 10:06:38;;;;;;;;;;;;;;;26.09;35.70;94027.31;4883136;29;9113;-58
2022/05/02 10:09:39;;;;;;;;;;;;;;;26.12;35.48;94026.25;4905270;29;9417;-58
2022/05/02 10:12:12;;;;;;;;;;;;;;;26.15;35.93;94022.47;4908298;29;9714;-58
2022/05/02 10:14:57;;;;;;;;;;;;;;;26.13;36.36;94018.75;4900646;29;8350;-58
2022/05/02 10:17:51;;;;;;;;;;;;;;;26.12;36.20;94015.22;4890470;29;9234;-58
2022/05/02 10:20:22;;;;;;;;;;;;;;;26.13;35.58;94018.75;4895921;29;7272;-57
2022/05/02 10:23:16;;;;;;;;;;;;;;;26.14;35.70;94020.97;4904965;29;8347;-57
2022/05/02 10:26:14;;;;;;;;;;;;;;;26.15;35.52;94019.72;4908577;29;7257;-57
2022/05/02 10:29:05;;;;;;;;;;;;;;;26.14;35.46;94012.69;4907677;29;9344;-57
2022/05/02 10:31:35;;;;;;;;;;;;;;;26.16;36.40;94018.44;4887307;29;7070;-57
2022/05/02 10:34:09;;;;;;;;;;;;;;;26.16;36.29;94015.66;4927535;28;9249;-57
2022/05/02 10:36:39;;;;;;;;;;;;;;;26.15;35.47;94008.69;4944134;28;9270;-59
2022/05/02 10:39:24;;;;;;;;;;;;;;;26.19;36.25;94013.16;4983299;28;9296;-57
2022/05/02 10:41:58;;;;;;;;;;;;;;;26.18;35.63;94004.13;4982895;28;9263;-57
2022/05/02 10:44:34;;;;;;;;;;;;;;;26.19;35.52;94007.66;4983949;28;9712;-58
2022/05/02 10:47:10;;;;;;;;;;;;;;;26.21;35.33;94005.09;4977271;28;9453;-58
2022/05/02 10:50:04;;;;;;;;;;;;;;;26.19;35.57;94007.66;4983797;28;8842;-58
2022/05/02 10:52:30;;;;;;;;;;;;;;;26.17;35.92;94003.38;4976287;28;7545;-57
2022/05/02 10:55:05;;;;;;;;;;;;;;;26.19;35.06;94002.13;5001117;28;7673;-58
2022/05/02 10:57:38;;;;;;;;;;;;;;;26.16;34.94;93998.41;4986372;28;9345;-58
2022/05/02 11:00:09;;;;;;;;;;;;;;;26.16;35.79;94003.91;5000376;28;9034;-57
2022/05/02 11:02:41;;;;;;;;;;;;;;;26.17;35.56;93997.88;4985177;28;9567;-58
2022/05/02 11:05:11;;;;;;;;;;;;;;;26.16;35.30;93996.38;4985442;28;7050;-58
2022/05/02 11:07:45;;;;;;;;;;;;;;;26.15;36.09;93986.63;5002726;28;8471;-58
2022/05/02 11:10:17;;;;;;;;;;;;;;;26.19;35.86;93993.88;4979073;28;8047;-58
2022/05/02 11:13:11;;;;;;;;;;;;;;;26.19;35.63;93991.09;4992188;28;7149;-57
2022/05/02 11:15:43;;;;;;;;;;;;;;;26.19;35.70;93985.59;4988837;28;9329;-58
2022/05/02 11:21:20;;;;;;;;;;;;;;;26.21;36.21;93989.28;4986187;28;7076;-58
2022/05/02 11:24:11;;;;;;;;;;;;;;;26.21;35.38;93988.56;5002265;28;7233;-57
2022/05/02 11:26:43;;;;;;;;;;;;;;;26.22;35.82;93990.03;4982527;28;8769;-58
2022/05/02 11:29:28;;;;;;;;;;;;;;;26.19;36.24;93969.78;4984142;28;7376;-57
2022/05/02 11:31:58;;;;;;;;;;;;;;;26.21;35.61;93972.75;4984401;28;7222;-57
2022/05/02 11:34:47;;;;;;;;;;;;;;;26.20;35.75;93970.53;4987003;28;7562;-57
2022/05/02 11:37:42;;;;;;;;;;;;;;;26.23;36.45;93980.50;4977014;28;7111;-57
2022/05/02 11:40:11;;;;;;;;;;;;;;;26.26;36.83;93979.44;4984812;28;9319;-57
2022/05/02 11:42:45;;;;;;;;;;;;;;;26.29;36.18;93970.13;5004147;28;9332;-57
2022/05/02 11:45:17;;;;;;;;;;;;;;;26.30;36.27;93969.59;4987091;28;7252;-57
2022/05/02 11:48:22;;;;;;;;;;;;;;;26.32;36.25;93967.06;5003706;28;8820;-57
2022/05/02 11:50:48;;;;;;;;;;;;;;;26.32;36.20;93964.31;4963999;28;8842;-58
2022/05/02 11:53:17;;;;;;;;;;;;;;;26.32;36.04;93972.56;4940156;28;9223;-58
2022/05/02 11:55:45;;;;;;;;;;;;;;;26.32;36.96;93961.53;4944205;28;8260;-58
2022/05/02 11:58:23;;;;;;;;;;;;;;;26.32;36.12;93969.81;4939546;28;7407;-57
2022/05/02 12:01:13;;;;;;;;;;;;;;;26.33;37.07;93965.06;4951206;28;7276;-58
2022/05/02 12:04:00;;;;;;;;;;;;;;;26.33;36.32;93965.06;4949321;28;9354;-57
2022/05/02 12:06:42;;;;;;;;;;;;;;;26.35;36.05;93954.25;4954312;28;9584;-58
2022/05/02 12:09:32;;;;;;;;;;;;;;;26.34;36.32;93955.53;4945566;28;8716;-57
2022/05/02 12:12:04;;;;;;;;;;;;;;;26.35;36.52;93960.50;4969506;28;7412;-57
2022/05/02 12:14:31;;;;;;;;;;;;;;;26.35;36.61;93959.75;4942062;28;9524;-58
2022/05/02 12:17:09;;;;;;;;;;;;;;;26.36;36.85;93961.25;4950503;28;6933;-57
2022/05/02 12:19:40;;;;;;;;;;;;;;;26.35;37.09;93951.47;4938733;28;6974;-58
2022/05/02 12:22:16;;;;;;;;;;;;;;;26.38;36.11;93953.94;4987881;28;7512;-56
2022/05/02 12:24:45;;;;;;;;;;;;;;;26.41;36.08;93960.41;4988511;28;7211;-57
2022/05/02 12:27:14;;;;;;;;;;;;;;;26.42;36.68;93953.63;4984326;28;6997;-57
2022/05/02 12:29:57;;;;;;;;;;;;;;;26.43;36.24;93955.84;4977908;28;9233;-57
2022/05/02 12:32:30;;;;;;;;;;;;;;;26.44;36.67;93945.56;4981364;28;7468;-57
2022/05/02 12:34:59;;;;;;;;;;;;;;;26.45;36.21;93947.03;4999896;28;9837;-57
2022/05/02 12:37:33;;;;;;;;;;;;;;;26.44;36.79;93954.59;4984913;28;9913;-58
2022/05/02 12:40:04;;;;;;;;;;;;;;;26.45;36.14;93942.28;4989616;28;9125;-57
2022/05/02 12:43:03;;;;;;;;;;;;;;;26.49;35.85;93947.50;4987174;28;9670;-57
2022/05/02 12:45:47;;;;;;;;;;;;;;;26.48;36.58;93940.47;4982606;28;8764;-58
2022/05/02 12:48:23;;;;;;;;;;;;;;;26.49;36.81;93944.75;4982340;28;7001;-57
2022/05/02 12:50:54;;;;;;;;;;;;;;;26.48;36.32;93940.47;5007857;28;8994;-58
2022/05/02 12:56:15;;;;;;;;;;;;;;;26.53;35.95;93931.38;4983517;28;6864;-57
2022/05/02 13:01:51;;;;;;;;;;;;;;;26.52;36.67;93929.88;4979392;28;7220;-58
2022/05/02 13:04:20;;;;;;;;;;;;;;;26.56;37.11;93924.78;4997036;28;9131;-57
2022/05/02 13:06:49;;;;;;;;;;;;;;;26.57;37.01;93926.28;4985313;28;7352;-57
2022/05/02 13:09:21;;;;;;;;;;;;;;;26.57;36.78;93915.25;4987858;28;8743;-57
2022/05/02 13:12:09;;;;;;;;;;;;;;;26.59;36.10;93924.50;4997703;28;7054;-58
2022/05/02 13:14:47;;;;;;;;;;;;;;;26.61;36.34;93919.19;4984743;28;7074;-57
2022/05/02 13:17:20;;;;;;;;;;;;;;;26.62;36.07;93923.44;5001403;28;8876;-57
2022/05/02 13:19:48;;;;;;;;;;;;;;;26.67;36.50;93919.09;4984080;28;7224;-57
2022/05/02 13:22:16;;;;;;;;;;;;;;;26.68;36.12;93915.81;4994823;28;9440;-58
2022/05/02 13:24:53;;;;;;;;;;;;;;;26.70;36.07;93907.75;4979098;28;7413;-58
2022/05/02 13:27:29;;;;;;;;;;;;;;;26.72;36.74;93916.22;5000583;28;7271;-57
2022/05/02 13:30:02;;;;;;;;;;;;;;;26.74;36.70;93915.72;4981430;28;7256;-58
2022/05/02 13:32:42;;;;;;;;;;;;;;;26.76;36.48;93910.41;4995969;28;7650;-57
2022/05/02 13:35:10;;;;;;;;;;;;;;;26.76;36.79;93902.16;4977917;28;7637;-57
2022/05/02 13:37:49;;;;;;;;;;;;;;;26.78;35.83;93896.84;4987233;28;9165;-56
2022/05/02 13:40:20;;;;;;;;;;;;;;;26.80;36.17;93899.81;4986301;28;9321;-56
2022/05/02 13:42:57;;;;;;;;;;;;;;;26.81;36.32;93901.31;5003765;28;7249;-58
2022/05/02 13:45:47;;;;;;;;;;;;;;;26.83;36.64;93896.00;4988744;28;9395;-57
2022/05/02 13:48:54;;;;;;;;;;;;;;;26.86;36.73;93897.72;4997526;28;8887;-58
2022/05/02 13:51:29;;;;;;;;;;;;;;;26.87;36.27;93896.41;4982723;28;7369;-58
2022/05/02 13:54:07;;;;;;;;;;;;;;;26.87;36.29;93893.66;4997366;28;9450;-58
2022/05/02 13:57:07;;;;;;;;;;;;;;;26.89;36.76;93888.34;4984896;28;9144;-58
2022/05/02 13:59:55;;;;;;;;;;;;;;;26.91;36.44;93891.31;4993223;28;8991;-58
2022/05/02 14:03:15;;;;;;;;;;;;;;;26.91;36.79;93888.56;4980696;28;7221;-58
2022/05/02 14:05:59;;;;;;;;;;;;;;;26.93;36.54;93891.53;4922812;29;7002;-58
2022/05/02 14:08:36;;;;;;;;;;;;;;;26.94;36.79;93890.25;4907159;29;9323;-58
2022/05/02 14:11:02;;;;;;;;;;;;;;;26.96;36.13;93887.72;4916101;29;7223;-57
2022/05/02 14:13:29;;;;;;;;;;;;;;;26.96;36.17;93889.72;4919896;29;7249;-57
2022/05/02 14:16:09;;;;;;;;;;;;;;;26.97;36.73;93891.94;4897234;29;9114;-58
2022/05/02 14:18:53;;;;;;;;;;;;;;;27.02;36.46;93882.06;4905699;29;7272;-57
2022/05/02 14:21:21;;;;;;;;;;;;;;;27.02;33.46;93876.56;4920706;29;9016;-58
2022/05/02 14:23:51;;;;;;;;;;;;;;;26.98;29.00;93876.88;4922082;29;8970;-58
2022/05/02 14:26:19;;;;;;;;;;;;;;;26.95;26.77;93877.94;4905106;29;9358;-58
2022/05/02 14:28:50;;;;;;;;;;;;;;;26.88;26.31;93884.13;4901844;29;8822;-58